Bulktec — VRFJ3 — position and weather

sailwx.info

Track history (hours):
 
Tides and Currents Weather Stations Pressure Air Temp Water Temp Dewpoint Dewpoint Depression Visibility Wind Speed Wind Dir Waves Ship Positions

Bulktec

Last reported at 2017-Nov-30 15:39 UTC. Time now 2018-Feb-20 14:01 UTC.
Position N 27°46' W 015°09'.
Warning: this ship's position is months out of date.

Length 179 m; draft 6.6 m.

Type: Cargo ship. MMSI: 3699076.

Date/timePositionNaut miles runAvg speedWind from/ knotsBaromVisibWave heightAir tempDewpointWater temp
2017-Nov-30 15:39N 27°46' W 015°09'212.2
2017-Nov-30 15:30N 27°48' W 015°08'712.3
2017-Nov-30 14:57N 27°54' W 015°06'512.1
2017-Nov-30 14:30N 27°60' W 015°04'611.7
2017-Nov-30 14:00N 28°05' W 015°01'611.9
2017-Nov-30 13:30N 28°10' W 014°59'611.8
2017-Nov-30 12:59N 28°16' W 014°56'612.0
2017-Nov-30 12:30N 28°22' W 014°54'612.1
2017-Nov-30 12:00N 28°27' W 014°52'  
Track history (hours):
 
Tides and Currents Weather Stations Pressure Air Temp Water Temp Dewpoint Dewpoint Depression Visibility Wind Speed Wind Dir Waves Ship Positions

Bulktec

Last reported at 2017-Nov-30 15:39 UTC. Time now 2018-Feb-20 14:01 UTC.
Position N 27°46' W 015°09'.
Warning: this ship's position is months out of date.

Length 179 m; draft 6.6 m.

Type: Cargo ship. MMSI: 3699076.

Date/timePositionNaut miles runAvg speedWind from/ knotsBaromVisibWave heightAir tempDewpointWater temp
2017-Nov-30 15:39N 27°46' W 015°09'212.2
2017-Nov-30 15:30N 27°48' W 015°08'712.3
2017-Nov-30 14:57N 27°54' W 015°06'512.1
2017-Nov-30 14:30N 27°60' W 015°04'611.7
2017-Nov-30 14:00N 28°05' W 015°01'611.9
2017-Nov-30 13:30N 28°10' W 014°59'611.8
2017-Nov-30 12:59N 28°16' W 014°56'612.0
2017-Nov-30 12:30N 28°22' W 014°54'612.1
2017-Nov-30 12:00N 28°27' W 014°52'  

Dump ship's entire track history